• Join FlightAware (Why Join?)
  • Login
  • US Flag 
12:42PM EDT


 

Airport Tracker/Info


-or-


 

Live Flight TrackerFlight Track Log ✈ FAO855 ✈ 14-Mar-2014 ✈ KSBN - KPIE

Flight Track Log - Related Links

Times and Time Zones

All times are in EDT time to prevent confusion due to time zone crossing. See the FAO855 flight status page for this flight to view local times or setup timezone preferences in your user account.

Time Position Orientation Groundspeed Altitude Reporting Facility
EDT Latitude Longitude Course Direction KTS MPH feet Rate Location/Type
07:25PM 41.6331 -86.4456 149° Southeast 231 266 3,300  Level Chicago Center
07:26PM 41.5850 -86.5094 225° Southwest 241 277 7,000 3,120 Climbing Chicago Center
07:27PM 41.5144 -86.5256 190° South 264 304 9,800 1,440 Climbing Chicago Center
07:28PM 41.4344 -86.5031 168° South 291 335 10,000 420 Climbing Chicago Center
07:29PM 41.3528 -86.4794 168° South 299 344 10,700 1,560 Climbing Chicago Center
07:30PM 41.2008 -85.9337 159° South  Level FlightAware Approximate
07:30PM 41.2392 -86.4478 168° South 352 405 13,300  Level Chicago Center
07:31PM 41.0955 -85.8663 149° Southeast  Level FlightAware Approximate
07:31PM 41.1433 -86.3986 159° South 374 430 15,700  Level Chicago Center
07:32PM 41.0514 -86.3164 146° Southeast 399 459 17,500 1,980 Climbing Chicago Center
07:34PM 40.9522 -86.2286 146° Southeast 426 490 19,900 1,980 Climbing Chicago Center
07:35PM 40.8519 -86.1417 147° Southeast 433 498 21,700 1,860 Climbing Chicago Center
07:36PM 40.7294 -86.0361 147° Southeast 440 506 23,800 1,680 Climbing Chicago Center
07:37PM 40.6350 -85.9506 145° Southeast 456 525 25,200 1,200 Climbing Chicago Center
07:38PM 40.5272 -85.8614 148° Southeast 458 527 26,300 1,260 Climbing Chicago Center
07:39PM 40.3942 -85.7506 148° Southeast 471 542 27,900 1,500 Climbing Chicago Center
07:39PM 40.3269 -85.6908 146° Southeast 469 540 29,000 1,140 Climbing Indianapolis Center
07:40PM 40.2161 -85.5983 147° Southeast 469 540 30,000 960 Climbing Indianapolis Center
07:41PM 40.0833 -85.4878 147° Southeast 469 540 31,000 480 Climbing Indianapolis Center
07:43PM 39.9717 -85.3922 147° Southeast 470 541 31,000  Level Indianapolis Center
07:44PM 39.8586 -85.2994 148° Southeast 472 543 31,000  Level Indianapolis Center
07:45PM 39.7472 -85.2056 147° Southeast 474 545 31,000  Level Indianapolis Center
07:46PM 39.6361 -85.1156 148° Southeast 473 544 31,000  Level Indianapolis Center
07:47PM 39.5178 -85.0622 161° South 453 521 31,000  Level Indianapolis Center
07:48PM 39.4011 -85.0092 161° South 446 513 31,000  Level Indianapolis Center
07:49PM 39.2839 -84.9592 162° South 446 513 31,000  Level Indianapolis Center
07:50PM 39.1400 -84.9064 164° South 446 513 31,000  Level Indianapolis Center
07:51PM 39.0394 -84.8711 165° South 441 507 31,000  Level Indianapolis Center
07:52PM 38.9050 -84.8239 165° South 441 507 31,000  Level Indianapolis Center
07:53PM 38.7853 -84.7803 164° South 443 510 31,000  Level Indianapolis Center
07:54PM 38.6653 -84.7403 165° South 443 510 31,000  Level Indianapolis Center
07:55PM 38.5231 -84.6917 165° South 445 512 31,000  Level Indianapolis Center
07:56PM 38.4017 -84.6514 165° South 449 517 31,000  Level Indianapolis Center
07:57PM 38.2831 -84.6108 165° South 448 516 31,000  Level Indianapolis Center
07:58PM 38.1644 -84.5692 165° South 446 513 31,000  Level Indianapolis Center
07:59PM 38.0447 -84.5283 165° South 445 512 31,000  Level Indianapolis Center
08:00PM 37.9253 -84.4889 165° South 445 512 31,000  Level Indianapolis Center
08:01PM 37.7844 -84.4406 165° South 445 512 31,000  Level Indianapolis Center
08:02PM 37.6625 -84.4011 166° South 450 518 31,000  Level Indianapolis Center
08:03PM 37.5417 -84.3597 165° South 450 518 31,000  Level Indianapolis Center
08:04PM 37.4192 -84.3206 166° South 450 518 31,000  Level Indianapolis Center
08:05PM 37.2969 -84.2794 165° South 451 519 31,000  Level Indianapolis Center
08:06PM 37.1753 -84.2381 165° South 452 520 31,000  Level Indianapolis Center
08:07PM 37.0311 -84.1919 166° South 453 521 31,000  Level Indianapolis Center
08:08PM 36.9083 -84.1514 165° South 454 522 31,000  Level Indianapolis Center
08:09PM 36.7853 -84.1111 165° South 455 524 31,000  Level Indianapolis Center
08:10PM 36.6611 -84.0711 166° South 457 526 31,000  Level Indianapolis Center
08:11PM 36.5392 -84.0306 165° South 457 526 31,000  Level Indianapolis Center
08:12PM 36.4033 -83.9875 166° South 456 525 31,000  Level Indianapolis Center
08:13PM 36.2794 -83.9472 165° South 456 525 31,000  Level Indianapolis Center
08:14PM 36.1569 -83.9081 166° South 456 525 31,000  Level Indianapolis Center
08:16PM 36.0061 -83.8617 166° South 452 520 31,000  Level Atlanta Center
08:17PM 35.8850 -83.8208 165° South 452 520 31,000  Level Atlanta Center
08:18PM 35.7578 -83.7828 166° South 452 520 31,000  Level Atlanta Center
08:19PM 35.6325 -83.7425 165° South 457 526 31,000  Level Atlanta Center
08:20PM 35.5092 -83.7044 166° South 457 526 31,000  Level Atlanta Center
08:21PM 35.3839 -83.6642 165° South 457 526 31,000  Level Atlanta Center
08:22PM 35.2586 -83.6242 165° South 462 532 31,000  Level Atlanta Center
08:23PM 35.1333 -83.5867 166° South 468 539 31,000  Level Atlanta Center
08:24PM 34.9953 -83.5417 165° South 468 539 31,000  Level Atlanta Center
08:25PM 34.8700 -83.5047 166° South 468 539 31,000  Level Atlanta Center
08:26PM 34.7406 -83.4650 166° South 476 548 31,000  Level Atlanta Center
08:27PM 34.6128 -83.4206 164° South 476 548 31,000  Level Atlanta Center
08:28PM 34.4958 -83.3861 166° South 476 548 31,000  Level Atlanta Center
08:29PM 34.3683 -83.3467 166° South 473 544 31,000  Level Atlanta Center
08:30PM 34.2386 -83.3075 166° South 473 544 31,000  Level Atlanta Center
08:31PM 34.1133 -83.2686 166° South 473 544 31,000  Level Atlanta Center
08:32PM 33.9836 -83.2322 167° South 473 544 31,000  Level Atlanta Center
08:33PM 33.8392 -83.1886 166° South 473 544 31,000  Level Atlanta Center
08:34PM 33.7139 -83.1522 166° South 473 544 31,000  Level Atlanta Center
08:35PM 33.5842 -83.1111 165° South 473 544 31,100 300 Climbing Atlanta Center
08:36PM 33.4522 -83.0728 166° South 473 544 31,700 420 Climbing Atlanta Center
08:37PM 33.3206 -83.0344 166° South 479 551 32,000 120 Climbing Atlanta Center
08:38PM 33.1886 -82.9964 166° South 490 564 32,000  Level Atlanta Center
08:39PM 33.0694 -82.9606 166° South 490 564 32,000  Level Atlanta Center
08:40PM 32.9292 -82.9153 165° South 490 564 32,000  Level Atlanta Center
08:42PM 32.6319 -82.8308 167° South 479 551 32,000  Level Jacksonville Center
08:43PM 32.5006 -82.7917 166° South 484 557 32,000  Level Jacksonville Center
08:44PM 32.3711 -82.7525 166° South 489 563 32,000  Level Jacksonville Center
08:45PM 32.2394 -82.7133 166° South 489 563 32,000  Level Jacksonville Center
08:46PM 32.1058 -82.6719 165° South 489 563 32,000  Level Jacksonville Center
08:47PM 31.9764 -82.6353 166° South 489 563 32,000  Level Jacksonville Center
08:48PM 31.8467 -82.5967 166° South 489 563 32,000  Level Jacksonville Center
08:49PM 31.7131 -82.5872 177° South 489 563 32,000  Level Jacksonville Center
08:50PM 31.5836 -82.5828 178° South 478 550 32,000 -180 Level Jacksonville Center
08:51PM 31.4542 -82.5808 179° South 473 544 31,700 -480 Descending Jacksonville Center
08:52PM 31.3206 -82.5814 180° South 479 551 31,100 -600 Descending Jacksonville Center
08:53PM 31.1889 -82.5769 178° South 474 545 30,600 -540 Descending Jacksonville Center
08:54PM 31.0617 -82.5700 177° South 474 545 30,100 -300 Descending Jacksonville Center
08:55PM 30.9300 -82.5681 179° South 474 545 30,000 -60 Descending Jacksonville Center
08:56PM 30.8006 -82.5661 179° South 474 545 30,000  Level Jacksonville Center
08:57PM 30.6692 -82.5592 177° South 474 545 30,000 -60 Level Jacksonville Center
08:58PM 30.5417 -82.5572 179° South 474 545 29,900 -240 Descending Jacksonville Center
08:59PM 30.4122 -82.5361 172° South 474 545 29,600 -420 Descending Jacksonville Center
09:00PM 30.2869 -82.5078 169° South 474 545 29,100 -540 Descending Jacksonville Center
09:01PM 30.1656 -82.4867 171° South 463 533 28,600 -540 Descending Jacksonville Center
09:02PM 30.0425 -82.4656 172° South 452 520 28,100 -540 Descending Jacksonville Center
09:03PM 29.9211 -82.4444 171° South 446 513 27,600 -540 Descending Jacksonville Center
09:04PM 29.8000 -82.4233 171° South 446 513 27,100 -540 Descending Jacksonville Center
09:05PM 29.6728 -82.4025 172° South 451 519 26,600 -540 Descending Jacksonville Center
09:06PM 29.5514 -82.3842 173° South 451 519 26,100 -1,140 Descending Jacksonville Center
09:07PM 29.4283 -82.3681 173° South 451 519 24,400 -1,980 Descending Jacksonville Center
09:08PM 29.3072 -82.3472 171° South 446 513 22,200 -1,860 Descending Jacksonville Center
09:09PM 29.1858 -82.3314 174° South 446 513 20,700 -1,740 Descending Jacksonville Center
09:10PM 29.0711 -82.3106 171° South 433 498 18,800 -1,980 Descending Jacksonville Center
09:11PM 28.9500 -82.2922 172° South 418 481 16,800 -1,800 Descending Jacksonville Center
09:13PM 28.7167 -82.2667 175° South 357 411 13,000 -1,380 Descending Tampa TRACON
09:14PM 28.6333 -82.2667 180° South 309 356 12,400 -960 Descending Tampa TRACON
09:15PM 28.5500 -82.3000 199° South 301 346 11,100 -1,380 Descending Tampa TRACON
09:16PM 28.5167 -82.3833 246° West 283 326 9,700 -1,500 Descending Tampa TRACON
09:17PM 28.4833 -82.4667 246° West 277 319 8,200 -1,560 Descending Tampa TRACON
09:18PM 28.4500 -82.5333 240° Southwest 272 313 6,600 -1,080 Descending Tampa TRACON
09:19PM 28.3833 -82.6000 221° Southwest 264 304 6,100 -300 Descending Tampa TRACON
09:20PM 28.3333 -82.6333 210° Southwest 261 300 6,100 -120 Level Tampa TRACON
09:21PM 28.2667 -82.7000 221° Southwest 261 300 5,900 -540 Descending Tampa TRACON
09:22PM 28.2167 -82.7333 210° Southwest 255 293 5,100 -420 Descending Tampa TRACON
09:23PM 28.1667 -82.7833 221° Southwest 226 260 5,100  Level Tampa TRACON
09:24PM 28.1000 -82.8167 204° Southwest 214 246 5,100  Level Tampa TRACON
09:25PM 28.0500 -82.8167 180° South 213 245 5,100 -60 Level Tampa TRACON
09:26PM 27.9833 -82.8167 180° South 211 243 5,000  Descending Tampa TRACON
09:27PM 27.9333 -82.8167 180° South 192 221 5,100  Climbing Tampa TRACON
09:28PM 27.8833 -82.8167 180° South 194 223 5,100 -60 Level Tampa TRACON
09:29PM 27.8333 -82.8167 180° South 193 222 5,000 -900 Descending Tampa TRACON
09:30PM 27.8167 -82.7667 111° Southeast 191 220 3,400 -1,500 Descending Tampa TRACON
09:31PM 27.8167 -82.7167 90° East 161 185 2,000 -1,200 Descending Tampa TRACON
09:32PM 27.8500 -82.6833 41° Northeast 148 170 1,000 -900 Descending Tampa TRACON
09:33PM 27.9000 -82.6833 360° North 141 162 200 -840 Descending Tampa TRACON
09:35PM 27.9100 -82.6875 North  Level Estimated
09:42PM 27.9100 -82.6875 North  Level Estimated
09:43PM 27.9100 -82.6875 North  Level Estimated